Terminal Aerodrome Forecast
Issued by NWS

Home | Current Version | Previous Version | Text Only | Print | Product List | Glossary On
Versions: 1 2 3 4 5 6 7 8 9 10 11 12
000
FTUS45 KVEF 242320
TAFDAG
TAF
KDAG 242320Z 2500/2524 VRB06KT P6SM SKC
     FM250700 26008KT P6SM FEW250
     FM251300 VRB05KT P6SM SCT250
     FM251800 03009KT P6SM SCT250=

USA.gov is the U.S. government's official web portal to all federal, state and local government web resources and services.